createdAt,value
2018-08-02T00:00:06.423Z,7.90
2018-08-02T00:05:09.673Z,8.63
2018-08-02T00:10:12.879Z,8.13
2018-08-02T00:15:16.015Z,7.20
2018-08-02T00:20:19.072Z,7.27
2018-08-02T00:25:22.226Z,7.70
2018-08-02T00:30:25.254Z,7.20
2018-08-02T00:35:28.452Z,7.43
2018-08-02T00:40:31.415Z,7.60
2018-08-02T00:45:34.552Z,7.07
2018-08-02T00:50:37.716Z,7.73
2018-08-02T00:55:40.872Z,7.33
2018-08-02T01:00:45.807Z,6.83
2018-08-02T01:05:48.935Z,6.00
2018-08-02T01:10:52.132Z,6.67
2018-08-02T01:15:55.155Z,5.73
2018-08-02T01:20:58.212Z,6.10
2018-08-02T01:26:01.203Z,6.47
2018-08-02T01:31:04.198Z,6.60
2018-08-02T01:36:07.161Z,6.67
2018-08-02T01:41:10.144Z,6.10
2018-08-02T01:46:13.264Z,6.40
2018-08-02T01:51:16.245Z,6.30
2018-08-02T01:56:19.369Z,6.37
2018-08-02T02:01:22.636Z,6.13
2018-08-02T02:06:25.839Z,6.80
2018-08-02T02:11:28.806Z,6.37
2018-08-02T02:16:31.976Z,6.20
2018-08-02T02:21:34.978Z,6.40
2018-08-02T02:26:38.065Z,6.30
2018-08-02T02:31:41.089Z,5.90
2018-08-02T02:36:44.236Z,5.87
2018-08-02T02:41:47.195Z,6.97
2018-08-02T02:46:50.188Z,5.90
2018-08-02T02:51:53.144Z,6.97
2018-08-02T02:56:56.152Z,6.77
2018-08-02T03:01:59.192Z,5.97
2018-08-02T03:07:02.200Z,7.53
2018-08-02T03:12:05.269Z,6.30
2018-08-02T03:17:08.238Z,7.60
2018-08-02T03:22:11.356Z,6.80
2018-08-02T03:27:14.572Z,7.17
2018-08-02T03:32:17.695Z,6.67
2018-08-02T03:37:20.997Z,7.13
2018-08-02T03:42:24.200Z,6.97
2018-08-02T03:47:27.507Z,6.20
2018-08-02T03:52:30.719Z,6.40
2018-08-02T03:57:33.928Z,6.93
2018-08-02T04:02:36.868Z,7.03
2018-08-02T04:07:40.070Z,6.67
2018-08-02T04:12:43.351Z,6.37
2018-08-02T04:17:46.552Z,6.10
2018-08-02T04:22:49.772Z,5.97
2018-08-02T04:27:53.363Z,7.20
2018-08-02T04:32:56.547Z,7.40
2018-08-02T04:37:59.553Z,7.77
2018-08-02T04:43:02.507Z,8.30
2018-08-02T04:48:05.703Z,7.37
2018-08-02T04:53:08.907Z,7.90
2018-08-02T04:58:11.902Z,7.30
2018-08-02T05:03:15.019Z,7.37
2018-08-02T05:08:18.172Z,6.50
2018-08-02T05:13:21.147Z,6.47
2018-08-02T05:18:24.343Z,7.43
2018-08-02T05:23:27.552Z,8.03
2018-08-02T05:28:30.767Z,7.70
2018-08-02T05:33:33.792Z,7.17
2018-08-02T05:38:36.984Z,7.53
2018-08-02T05:43:40.498Z,7.00
2018-08-02T05:48:43.488Z,7.90
2018-08-02T05:53:46.721Z,7.60
2018-08-02T05:58:50.429Z,7.73
2018-08-02T06:03:53.436Z,7.93
2018-08-02T06:08:56.639Z,7.90
2018-08-02T06:13:59.848Z,7.80
2018-08-02T06:19:02.891Z,7.90
2018-08-02T06:24:06.012Z,8.10
2018-08-02T06:29:09.003Z,8.53
2018-08-02T06:34:11.976Z,7.80
2018-08-02T06:39:15.100Z,7.70
2018-08-02T06:44:18.113Z,8.10
2018-08-02T06:49:21.148Z,8.10
2018-08-02T06:54:24.184Z,7.67
2018-08-02T06:59:27.393Z,8.10
2018-08-02T07:04:30.615Z,8.80
2018-08-02T07:09:33.569Z,7.67
2018-08-02T07:14:36.587Z,8.47
2018-08-02T07:19:52.916Z,8.33
2018-08-02T07:24:55.956Z,8.30
2018-08-02T07:29:58.968Z,8.57
2018-08-02T07:35:02.000Z,8.40
2018-08-02T07:40:05.675Z,8.17
2018-08-02T07:45:08.644Z,7.50
2018-08-02T07:50:11.875Z,7.67
2018-08-02T07:55:15.041Z,8.00
2018-08-02T08:00:18.299Z,8.50
2018-08-02T08:05:21.513Z,8.30
2018-08-02T08:10:24.707Z,7.70
2018-08-02T08:15:27.921Z,8.33
2018-08-02T08:20:31.199Z,8.30
2018-08-02T08:25:34.475Z,7.73
2018-08-02T08:30:37.765Z,7.17
2018-08-02T08:35:40.819Z,8.50
2018-08-02T08:40:43.797Z,8.10
2018-08-02T08:45:46.960Z,7.80
2018-08-02T08:50:50.096Z,8.17
2018-08-02T08:55:53.098Z,8.87
2018-08-02T09:00:56.488Z,8.63
2018-08-02T09:05:59.692Z,9.50
2018-08-02T09:11:02.852Z,9.10
2018-08-02T09:16:05.879Z,9.30
2018-08-02T09:21:08.916Z,9.13
2018-08-02T09:26:12.066Z,9.30
2018-08-02T09:31:15.201Z,8.60
2018-08-02T09:36:18.194Z,8.23
2018-08-02T09:41:21.303Z,8.67
2018-08-02T09:46:24.594Z,9.03
2018-08-02T09:51:27.728Z,8.83
2018-08-02T09:56:30.980Z,9.13
2018-08-02T10:01:39.655Z,9.23
2018-08-02T10:06:42.936Z,9.33
2018-08-02T10:11:45.936Z,8.53
2018-08-02T10:16:49.145Z,8.47
2018-08-02T10:21:52.444Z,8.90
2018-08-02T10:26:55.652Z,9.43
2018-08-02T10:31:58.677Z,9.40
2018-08-02T10:37:01.977Z,10.10
2018-08-02T10:42:04.997Z,9.17
2018-08-02T10:47:08.026Z,10.23
2018-08-02T10:52:11.177Z,9.60
2018-08-02T10:57:14.393Z,9.93
2018-08-02T11:02:17.567Z,9.27
2018-08-02T11:07:20.805Z,10.00
2018-08-02T11:12:23.852Z,9.30
2018-08-02T11:17:27.238Z,10.43
2018-08-02T11:22:30.427Z,9.67
2018-08-02T11:27:33.636Z,10.13
2018-08-02T11:32:36.858Z,10.40
2018-08-02T11:37:39.923Z,10.70
2018-08-02T11:42:43.169Z,9.87
2018-08-02T11:47:47.129Z,9.73
2018-08-02T11:52:50.158Z,11.10
2018-08-02T11:57:53.114Z,10.30
2018-08-02T12:02:56.117Z,11.47
2018-08-02T12:07:59.056Z,9.87
2018-08-02T12:13:02.136Z,9.50
2018-08-02T12:18:05.595Z,9.53
2018-08-02T12:23:08.563Z,10.10
2018-08-02T12:28:11.612Z,10.50
2018-08-02T12:33:14.599Z,9.90
2018-08-02T12:38:17.734Z,11.00
2018-08-02T12:43:20.686Z,10.13
2018-08-02T12:48:23.850Z,10.10
2018-08-02T12:53:27.060Z,10.27
2018-08-02T12:58:30.264Z,10.90
2018-08-02T13:03:33.606Z,10.57
2018-08-02T13:08:36.711Z,11.40
2018-08-02T13:13:40.098Z,10.90
2018-08-02T13:18:43.117Z,10.53
2018-08-02T13:23:46.310Z,11.07
2018-08-02T13:28:49.497Z,10.57
2018-08-02T13:33:52.834Z,8.80
2018-08-02T13:38:55.889Z,10.80
2018-08-02T13:43:58.940Z,11.20
2018-08-02T13:49:01.995Z,9.43
2018-08-02T13:54:05.092Z,10.47
2018-08-02T13:59:08.157Z,9.93
2018-08-02T14:04:11.277Z,9.30
2018-08-02T14:09:14.359Z,9.60
2018-08-02T14:14:17.527Z,11.10
2018-08-02T14:19:20.644Z,10.33
2018-08-02T14:24:23.723Z,9.57
2018-08-02T14:29:26.840Z,9.80
2018-08-02T14:34:29.883Z,10.50
2018-08-02T14:39:33.024Z,10.17
2018-08-02T14:44:36.147Z,10.07
2018-08-02T14:49:39.256Z,9.70
2018-08-02T14:54:42.951Z,8.47
2018-08-02T14:59:46.374Z,9.27
2018-08-02T15:04:49.778Z,10.40
2018-08-02T15:09:53.084Z,9.60
2018-08-02T15:14:56.296Z,8.20
2018-08-02T15:19:59.624Z,8.90
2018-08-02T15:25:02.787Z,8.83
2018-08-02T15:30:06.213Z,9.10
2018-08-02T15:35:09.512Z,8.10
2018-08-02T15:40:12.554Z,8.63
2018-08-02T15:45:15.579Z,8.67
2018-08-02T15:50:18.701Z,8.10
2018-08-02T15:55:21.940Z,8.57
2018-08-02T16:00:25.046Z,9.10
2018-08-02T16:05:28.111Z,8.80
2018-08-02T16:10:31.231Z,9.37
2018-08-02T16:15:34.359Z,8.87
2018-08-02T16:20:37.463Z,8.40
2018-08-02T16:25:40.631Z,9.13
2018-08-02T16:30:43.620Z,8.70
2018-08-02T16:35:46.935Z,8.70
2018-08-02T16:40:50.236Z,8.70
2018-08-02T16:45:53.445Z,8.40
2018-08-02T16:50:56.477Z,8.30
2018-08-02T16:55:59.761Z,8.60
2018-08-02T17:01:03.108Z,8.87
2018-08-02T17:06:06.240Z,8.70
2018-08-02T17:11:09.516Z,8.40
2018-08-02T17:16:12.649Z,8.00
2018-08-02T17:21:15.876Z,8.90
2018-08-02T17:26:18.824Z,9.07
2018-08-02T17:31:22.104Z,8.60
2018-08-02T17:36:25.225Z,9.03
2018-08-02T17:41:28.649Z,9.10
2018-08-02T17:46:31.937Z,7.97
2018-08-02T17:51:35.039Z,9.27
2018-08-02T17:56:38.213Z,8.23
2018-08-02T18:01:41.334Z,8.43
2018-08-02T18:06:44.574Z,8.37
2018-08-02T18:11:47.809Z,8.70
2018-08-02T18:16:51.012Z,7.90
2018-08-02T18:21:54.105Z,9.17
2018-08-02T18:26:57.273Z,8.90
2018-08-02T18:32:00.364Z,8.70
2018-08-02T18:37:03.433Z,9.10
2018-08-02T18:42:06.626Z,9.13
2018-08-02T18:47:10.006Z,8.70
2018-08-02T18:52:13.065Z,10.20
2018-08-02T18:57:16.229Z,11.23
2018-08-02T19:02:19.691Z,10.70
2018-08-02T19:07:22.909Z,11.37
2018-08-02T19:12:26.070Z,10.03
2018-08-02T19:17:29.436Z,9.30
2018-08-02T19:22:33.196Z,10.73
2018-08-02T19:27:36.265Z,10.10
2018-08-02T19:32:39.410Z,9.40
2018-08-02T19:37:42.442Z,9.30
2018-08-02T19:42:45.538Z,10.00
2018-08-02T19:47:48.861Z,9.70
2018-08-02T19:52:52.210Z,9.60
2018-08-02T19:57:55.475Z,8.70
2018-08-02T20:02:59.250Z,7.70
2018-08-02T20:08:02.768Z,10.43
2018-08-02T20:13:07.066Z,8.80
2018-08-02T20:18:10.965Z,8.10
2018-08-02T20:23:15.144Z,9.73
2018-08-02T20:28:19.729Z,8.70
2018-08-02T20:33:24.526Z,9.50
2018-08-02T20:38:28.967Z,8.97
2018-08-02T20:43:33.177Z,9.40
2018-08-02T20:48:36.857Z,8.90
2018-08-02T20:53:40.757Z,10.00
2018-08-02T20:58:43.740Z,8.83
2018-08-02T21:03:46.753Z,8.87
2018-08-02T21:08:49.877Z,8.63
2018-08-02T21:13:53.212Z,8.50
2018-08-02T21:18:56.533Z,8.70
2018-08-02T21:23:59.549Z,7.63
2018-08-02T21:29:02.923Z,7.43
2018-08-02T21:34:06.007Z,8.23
2018-08-02T21:39:10.094Z,8.70
2018-08-02T21:44:13.076Z,8.60
2018-08-02T21:49:16.305Z,8.57
2018-08-02T21:54:19.304Z,9.17
2018-08-02T21:59:22.360Z,8.70
2018-08-02T22:04:26.754Z,7.20
2018-08-02T22:09:29.840Z,8.23
2018-08-02T22:14:38.652Z,8.20
2018-08-02T22:19:41.691Z,8.17
2018-08-02T22:24:44.873Z,7.97
2018-08-02T22:29:47.871Z,7.20
2018-08-02T22:34:51.112Z,9.17
2018-08-02T22:39:54.291Z,8.47
2018-08-02T22:44:57.753Z,7.77
2018-08-02T22:50:00.808Z,8.60
2018-08-02T22:55:04.062Z,8.13
2018-08-02T23:00:07.424Z,8.03
2018-08-02T23:05:11.136Z,8.00
2018-08-02T23:10:14.132Z,8.83
2018-08-02T23:15:17.261Z,8.70
2018-08-02T23:20:20.341Z,8.57
2018-08-02T23:25:23.317Z,9.80
2018-08-02T23:30:26.511Z,9.47
2018-08-02T23:35:29.504Z,8.40
2018-08-02T23:40:33.143Z,8.80
2018-08-02T23:45:36.125Z,8.97
2018-08-02T23:50:39.114Z,9.50
2018-08-02T23:55:42.454Z,9.27
